Map

Track Data

SID SEASON NUMBER BASIN SUBBASIN NAME ISO_TIME NATURE LAT LON WMO_WIND WMO_PRES WMO_AGENCY TRACK_TYPE DIST2LAND LANDFALL IFLAG USA_AGENCY USA_ATCF_ID USA_LAT USA_LON USA_RECORD USA_STATUS USA_WIND USA_PRES USA_SSHS USA_R34_NE USA_R34_SE USA_R34_SW USA_R34_NW USA_R50_NE USA_R50_SE USA_R50_SW USA_R50_NW USA_R64_NE USA_R64_SE USA_R64_SW USA_R64_NW USA_POCI USA_ROCI USA_RMW USA_EYE TOKYO_LAT TOKYO_LON TOKYO_GRADE TOKYO_WIND TOKYO_PRES TOKYO_R50_DIR TOKYO_R50_LONG TOKYO_R50_SHORT TOKYO_R30_DIR TOKYO_R30_LONG TOKYO_R30_SHORT TOKYO_LAND CMA_LAT CMA_LON CMA_CAT CMA_WIND CMA_PRES HKO_LAT HKO_LON HKO_CAT HKO_WIND HKO_PRES NEWDELHI_LAT NEWDELHI_LON NEWDELHI_GRADE NEWDELHI_WIND NEWDELHI_PRES NEWDELHI_CI NEWDELHI_DP NEWDELHI_POCI REUNION_LAT REUNION_LON REUNION_TYPE REUNION_WIND REUNION_PRES REUNION_TNUM REUNION_CI REUNION_RMW REUNION_R34_NE REUNION_R34_SE REUNION_R34_SW REUNION_R34_NW REUNION_R50_NE REUNION_R50_SE REUNION_R50_SW REUNION_R50_NW REUNION_R64_NE REUNION_R64_SE REUNION_R64_SW REUNION_R64_NW BOM_LAT BOM_LON BOM_TYPE BOM_WIND BOM_PRES BOM_TNUM BOM_CI BOM_RMW BOM_R34_NE BOM_R34_SE BOM_R34_SW BOM_R34_NW BOM_R50_NE BOM_R50_SE BOM_R50_SW BOM_R50_NW BOM_R64_NE BOM_R64_SE BOM_R64_SW BOM_R64_NW BOM_ROCI BOM_POCI BOM_EYE BOM_POS_METHOD BOM_PRES_METHOD NADI_LAT NADI_LON NADI_CAT NADI_WIND NADI_PRES WELLINGTON_LAT WELLINGTON_LON WELLINGTON_WIND WELLINGTON_PRES DS824_LAT DS824_LON DS824_STAGE DS824_WIND DS824_PRES TD9636_LAT TD9636_LON TD9636_STAGE TD9636_WIND TD9636_PRES TD9635_LAT TD9635_LON TD9635_WIND TD9635_PRES TD9635_ROCI NEUMANN_LAT NEUMANN_LON NEUMANN_CLASS NEUMANN_WIND NEUMANN_PRES MLC_LAT MLC_LON MLC_CLASS MLC_WIND MLC_PRES USA_GUST BOM_GUST BOM_GUST_PER REUNION_GUST REUNION_GUST_PER USA_SEAHGT USA_SEARAD_NE USA_SEARAD_SE USA_SEARAD_SW USA_SEARAD_NW STORM_SPEED STORM_DIR
1987320N03171 1987 96 WP MM NINA 1987-11-16 00:00:00 NR 2.90000 171.100 main 1706 1692 O_________O___ jtwc_wp WP231987 2.90000 171.100 15 -1 2.90000 171.100 1 15 13 298
1987320N03171 1987 96 WP MM NINA 1987-11-16 03:00:00 NR 3.20587 170.523 main 1687 1677 P_________P___ WP231987 3.19760 170.485 15 -1 3.21414 170.561 1 15 13 298
1987320N03171 1987 96 WP MM NINA 1987-11-16 06:00:00 NR 3.51127 169.954 main 1679 1664 O_________P___ jtwc_wp WP231987 3.50000 169.900 15 -1 3.52253 170.007 1 15 13 298
1987320N03171 1987 96 WP MM NINA 1987-11-16 09:00:00 NR 3.81354 169.391 main 1667 1655 P_________P___ WP231987 3.80742 169.357 15 -1 3.81965 169.425 1 15 13 297
1987320N03171 1987 96 WP MM NINA 1987-11-16 12:00:00 NR 4.10000 168.800 main 1658 1643 O_________O___ jtwc_wp WP231987 4.10000 168.800 15 -1 4.10000 168.800 1 15 14 294
1987320N03171 1987 96 WP MM NINA 1987-11-16 15:00:00 NR 4.36493 168.143 main 1647 1630 P_________P___ WP231987 4.37250 168.158 15 -1 4.35737 168.129 1 16 14 290
1987320N03171 1987 96 WP MM NINA 1987-11-16 18:00:00 NR 4.59140 167.476 main 1635 1616 O_________P___ jtwc_wp WP231987 4.60000 167.500 15 -1 4.58281 167.453 1 17 14 287
1987320N03171 1987 96 WP MM NINA 1987-11-16 21:00:00 NR 4.77341 166.837 main 1622 1608 P_________P___ WP231987 4.78002 166.848 17 -1 4.76680 166.826 1 18 12 285
1987320N03171 1987 96 WP MM NINA 1987-11-17 00:00:00 NR 4.90000 166.300 main 1610 1602 O_________O___ jtwc_wp WP231987 4.90000 166.300 20 -1 4.90000 166.300 1 20 9 283
1987320N03171 1987 96 WP MM NINA 1987-11-17 03:00:00 NR 4.97979 165.937 main 1604 1597 P_________P___ WP231987 4.97242 165.940 20 -1 4.98715 165.934 1 20 6 280
1987320N03171 1987 96 WP MM NINA 1987-11-17 06:00:00 NR 5.01230 165.686 main 1597 1589 O_________P___ jtwc_wp WP231987 5.00000 165.700 20 -1 5.02459 165.672 1 20 5 275
1987320N03171 1987 96 WP MM NINA 1987-11-17 09:00:00 NR 5.01987 165.480 main 1589 1582 P_________P___ WP231987 5.01498 165.485 20 -1 5.02476 165.475 1 20 4 268
1987320N03171 1987 96 WP MM NINA 1987-11-17 12:00:00 NR 5.00000 165.300 main 1582 1575 O_________O___ jtwc_wp WP231987 5.00000 165.300 20 -1 5.00000 165.300 1 20 4 262
1987320N03171 1987 96 WP MM NINA 1987-11-17 15:00:00 NR 4.96650 165.107 main 1575 1558 P_________P___ WP231987 4.95749 165.100 20 -1 4.97551 165.114 1 20 4 257
1987320N03171 1987 96 WP MM NINA 1987-11-17 18:00:00 NR 4.91491 164.919 main 1558 1551 O_________P___ jtwc_wp WP231987 4.90000 164.900 20 -1 4.92982 164.938 1 20 4 254
1987320N03171 1987 96 WP MM NINA 1987-11-17 21:00:00 NR 4.85960 164.732 main 1551 1531 P_________P___ WP231987 4.84997 164.723 20 -1 4.86924 164.742 1 20 4 255
1987320N03171 1987 96 WP MM NINA 1987-11-18 00:00:00 NR 4.80000 164.500 main 1531 1507 O_________O___ jtwc_wp WP231987 4.80000 164.500 20 -1 4.80000 164.500 1 20 6 258
1987320N03171 1987 96 WP MM NINA 1987-11-18 03:00:00 NR 4.74280 164.186 main 1507 1490 P_________P___ WP231987 4.75750 164.180 20 -1 4.72811 164.192 1 21 7 260
1987320N03171 1987 96 WP MM NINA 1987-11-18 06:00:00 NR 4.67498 163.816 main 1490 1463 O_________P___ jtwc_wp WP231987 4.70000 163.800 20 -1 4.64995 163.832 1 22 8 259
1987320N03171 1987 96 WP MM NINA 1987-11-18 09:00:00 NR 4.58965 163.424 main 1463 1432 P_________P___ WP231987 4.60748 163.415 22 -1 4.57182 163.432 1 23 8 258
1987320N03171 1987 96 WP MM NINA 1987-11-18 12:00:00 NR 4.50000 163.000 main 1432 1396 O_________O___ jtwc_wp WP231987 4.50000 163.000 25 -1 4.50000 163.000 1 25 9 258
1987320N03171 1987 96 WP MM NINA 1987-11-18 15:00:00 NR 4.40371 162.563 main 1396 1355 P_________P___ WP231987 4.38497 162.565 25 -1 4.42246 162.562 1 25 9 259
1987320N03171 1987 96 WP MM NINA 1987-11-18 18:00:00 NR 4.32746 162.097 main 1355 1323 O_________P___ jtwc_wp WP231987 4.30000 162.100 25 -1 4.35493 162.095 1 25 10 263
1987320N03171 1987 96 WP MM NINA 1987-11-18 21:00:00 NR 4.29370 161.610 main 1323 1294 P_________P___ WP231987 4.27747 161.615 25 -1 4.30993 161.605 1 25 10 268
1987320N03171 1987 96 WP MM NINA 1987-11-19 00:00:00 NR 4.30000 161.100 main 1294 1263 O_________O___ jtwc_wp WP231987 4.30000 161.100 25 -1 4.30000 161.100 1 25 10 272
1987320N03171 1987 96 WP MM NINA 1987-11-19 03:00:00 NR 4.33083 160.584 main 1263 1217 P_________P___ WP231987 4.33499 160.550 25 -1 4.32666 160.618 1 26 10 263
1987320N03171 1987 96 WP MM NINA 1987-11-19 06:00:00 TS 4.18430 160.108 1002 tokyo main 1217 1181 OO________P___ jtwc_wp WP231987 4.40000 160.000 25 -1 2.50000 160.500 2 1002 0 0 0 4.38967 160.117 1 27 10 261
1987320N03171 1987 96 WP MM NINA 1987-11-19 09:00:00 TS 4.17012 159.601 main 1181 1137 PP________P___ WP231987 4.49240 159.515 27 -1 2.90008 159.808 2 1002 0 0 4.48285 159.583 1 28 11 267
1987320N03171 1987 96 WP MM NINA 1987-11-19 12:00:00 TS 4.12308 159.038 1002 tokyo main 1131 1100 OOOO______O___ jtwc_wp WP231987 4.60000 159.000 30 -1 3.30000 159.100 2 1002 0 0 0 3.50000 159.000 1 23 1004 3.40000 159.200 TD 30 1000 4.60000 159.000 1 30 12 274
1987320N03171 1987 96 WP MM NINA 1987-11-19 15:00:00 TS 4.25090 158.387 main 1110 1077 PPPP______P___ WP231987 4.68495 158.387 32 -1 3.69994 158.365 2 1001 0 0 4.00522 158.130 1 26 1002 3.83247 158.720 TD 30 1000 4.69987 158.370 1 32 14 286
1987320N03171 1987 96 WP MM NINA 1987-11-19 18:00:00 TS 4.51662 157.675 35 1000 tokyo main 1079 1064 OOOO______P___ jtwc_wp WP231987 4.80000 157.700 35 0 4.10000 157.600 3 35 1000 0 9 100 100 0 4.50000 157.300 1 29 1000 4.30000 158.100 TD 30 1000 4.82478 157.689 1 35 16 292
1987320N03171 1987 96 WP MM NINA 1987-11-19 21:00:00 TS 4.84741 156.908 main 1058 1047 PPPP______P___ WP231987 4.96994 156.972 37 0 4.49241 156.815 3 37 999 0 9 100 100 4.97236 156.535 1 33 997 4.81506 157.253 TD 32 997 4.98728 156.964 1 37 17 294
1987320N03171 1987 96 WP MM NINA 1987-11-20 00:00:00 TS 5.20000 156.100 40 998 tokyo main 1051 1041 OOOO______O___ jtwc_wp WP231987 5.20000 156.200 40 0 4.90000 156.000 3 40 998 0 9 100 100 0 5.40000 155.800 2 38 995 5.30000 156.300 TS 35 995 5.20000 156.200 2 40 18 293
1987320N03171 1987 96 WP MM NINA 1987-11-20 03:00:00 TS 5.54627 155.269 main 1041 1035 PPPP______P___ WP231987 5.47740 155.415 42 0 5.34994 155.150 3 42 996 0 9 100 100 5.76512 154.975 2 43 992 5.67239 155.392 TS 35 995 5.46648 155.411 2 42 18 293
1987320N03171 1987 96 WP MM NINA 1987-11-20 06:00:00 TS 5.89647 154.457 45 994 tokyo main 1043 1039 OOOO______P___ jtwc_wp WP231987 5.80000 154.600 45 0 5.80000 154.300 3 45 994 0 9 100 100 0 6.10000 154.300 3 48 990 6.00000 154.500 TS 35 995 5.78237 154.587 2 45 17 295
1987320N03171 1987 96 WP MM NINA 1987-11-20 09:00:00 TS 6.25469 153.749 main 1055 1052 PPPP______P___ WP231987 6.14244 153.750 47 0 6.19984 153.492 3 45 993 0 9 100 100 6.44925 154.132 3 48 990 6.34989 153.627 TS 37 992 6.13205 153.745 2 47 16 297
1987320N03171 1987 96 WP MM NINA 1987-11-20 12:00:00 TS 6.62000 153.020 45 992 tokyo main 1067 1067 OOOO______O___ jtwc_wp WP231987 6.50000 152.900 50 0 6.60000 152.700 3 45 992 0 9 100 100 0 6.80000 153.800 3 48 990 6.70000 152.800 TS 40 990 6.50000 152.900 2 50 18 295
1987320N03171 1987 96 WP MM NINA 1987-11-20 15:00:00 TS 6.98763 152.142 main 1095 1093 PPPP______P___ WP231987 6.84229 152.100 55 0 7.03487 151.900 3 47 991 0 9 125 125 7.15110 152.590 3 48 987 7.04981 152.035 TS 42 990 6.86006 152.087 2 52 19 293
1987320N03171 1987 96 WP MM NINA 1987-11-20 18:00:00 TS 7.36684 151.234 50 990 tokyo main 1132 1132 OOOO______P___ jtwc_wp WP231987 7.20000 151.300 60 0 7.50000 151.100 4 50 990 0 9 150 150 0 7.50000 151.200 3 48 985 7.40000 151.300 TS 45 990 7.23417 151.272 2 55 19 295
1987320N03171 1987 96 WP MM NINA 1987-11-20 21:00:00 TS 7.76898 150.415 main 1158 1155 PPPP______P___ WP231987 7.59983 150.465 60 0 8.02234 150.300 4 52 987 0 9 150 150 7.85684 150.282 3 53 985 7.74970 150.580 TS 47 987 7.61621 150.446 2 57 18 296
1987320N03171 1987 96 WP MM NINA 1987-11-21 00:00:00 TS 8.16000 149.600 55 985 tokyo main 1179 1175 OOOO______O___ jtwc_wp WP231987 8.00000 149.600 60 0 8.50000 149.500 4 55 985 9 50 50 9 150 150 0 8.20000 149.500 3 58 985 8.10000 149.800 STS 50 985 8.00000 149.600 2 60 18 294
1987320N03171 1987 96 WP MM NINA 1987-11-21 03:00:00 TS 8.51395 148.741 main 1196 1196 PPPP______P___ WP231987 8.34985 148.707 60 0 8.83722 148.715 4 55 985 9 50 50 9 150 150 8.51466 148.672 3 58 985 8.46480 148.902 STS 50 985 8.40322 148.710 2 61 19 291
1987320N03171 1987 96 WP MM NINA 1987-11-21 06:00:00 TS 8.84045 147.840 55 985 tokyo main 1222 1222 OOOO______P___ jtwc_wp WP231987 8.70000 147.800 60 0 9.10000 147.900 4 55 985 9 50 50 9 150 150 0 8.80000 147.800 3 58 985 8.80000 147.900 STS 50 985 8.80224 147.800 2 62 20 289
1987320N03171 1987 96 WP MM NINA 1987-11-21 09:00:00 TS 9.16150 146.878 main 1266 1266 PPPP______P___ WP231987 9.11483 146.893 62 0 9.37988 147.015 4 55 982 9 50 50 9 150 150 9.05013 146.792 3 58 985 9.08755 146.800 STS 50 985 9.17510 146.891 2 63 20 288
1987320N03171 1987 96 WP MM NINA 1987-11-21 12:00:00 TS 9.44000 145.920 55 980 tokyo main 1290 1290 OOOO______O___ jtwc_wp WP231987 9.50000 146.000 65 1 9.60000 146.100 4 55 980 9 50 50 9 150 150 0 9.30000 145.800 3 58 985 9.30000 145.700 STS 50 985 9.50000 146.000 3 65 19 285
1987320N03171 1987 96 WP MM NINA 1987-11-21 15:00:00 TS 9.65699 145.029 main 1334 1334 PPPP______P___ WP231987 9.78728 145.135 65 1 9.71488 145.185 4 57 980 9 55 55 9 165 165 9.60714 144.963 3 58 982 9.42222 144.705 STS 52 982 9.75342 145.157 3 65 18 283
1987320N03171 1987 96 WP MM NINA 1987-11-21 18:00:00 TS 9.83174 144.187 60 980 tokyo main 1359 1359 OOOO______P___ jtwc_wp WP231987 10.0000 144.300 65 1 9.80000 144.300 4 60 980 9 60 60 9 180 180 0 9.90000 144.200 3 58 980 9.50000 143.800 STS 55 980 9.95871 144.334 3 65 17 281
1987320N03171 1987 96 WP MM NINA 1987-11-21 21:00:00 TS 9.97919 143.386 main 1401 1398 PPPP______P___ WP231987 10.1572 143.500 65 1 9.92720 143.485 4 60 980 9 60 60 9 177 177 10.1221 143.465 3 58 980 9.55475 142.962 STS 57 977 10.1347 143.519 3 65 16 281
1987320N03171 1987 96 WP MM NINA 1987-11-22 00:00:00 TS 10.1400 142.600 60 980 tokyo main 1398 1394 OOOO______O___ jtwc_wp WP231987 10.3000 142.700 65 1 10.1000 142.700 4 60 980 9 60 60 9 175 175 0 10.3000 142.700 3 58 980 9.70000 142.200 STS 60 975 10.3000 142.700 4 65 16 284
1987320N03171 1987 96 WP MM NINA 1987-11-22 03:00:00 TS 10.3787 141.789 main 1402 1395 PPPP______P___ WP231987 10.4998 141.858 67 1 10.3571 141.923 4 62 977 9 70 70 9 187 187 10.4574 141.822 3 58 980 10.0772 141.493 STS 60 975 10.5021 141.849 4 67 17 287
1987320N03171 1987 96 WP MM NINA 1987-11-22 06:00:00 TS 10.6189 140.959 65 975 tokyo main 1396 1380 OOOO______P___ jtwc_wp WP231987 10.7000 141.000 70 1 10.6000 141.100 5 65 975 9 80 80 9 200 200 0 10.6000 140.900 3 58 980 10.5000 140.800 STS 60 975 10.6944 140.993 4 70 17 284
1987320N03171 1987 96 WP MM NINA 1987-11-22 09:00:00 TS 10.8053 140.098 main 1380 1362 PPPP______P___ WP231987 10.8724 140.135 72 1 10.7375 140.165 5 65 975 9 80 80 9 200 200 10.7649 139.985 3 58 980 10.7873 140.065 STS 62 972 10.8646 140.140 4 72 17 281
1987320N03171 1987 96 WP MM NINA 1987-11-22 12:00:00 TS 10.9400 139.240 65 975 tokyo main 1359 1349 OOOO______O___ jtwc_wp WP231987 11.0000 139.300 75 1 10.8000 139.200 5 65 975 9 80 80 9 200 200 0 10.9000 139.100 3 58 980 11.0000 139.300 T 65 970 11.0000 139.300 4 75 17 277
1987320N03171 1987 96 WP MM NINA 1987-11-22 15:00:00 TS 11.0202 138.412 main 1347 1275 PPPP______P___ WP231987 11.0646 138.550 77 1 10.8074 138.270 5 65 972 9 80 80 9 200 200 10.9647 138.277 3 63 977 11.1949 138.500 T 67 967 11.0692 138.465 4 77 16 274
1987320N03171 1987 96 WP MM NINA 1987-11-22 18:00:00 TS 11.0614 137.609 65 970 tokyo main 1264 1189 OOOO______P___ jtwc_wp WP231987 11.1000 137.800 80 1 10.8000 137.400 5 65 970 9 80 80 9 200 200 0 11.0000 137.500 4 68 975 11.3000 137.700 T 70 965 11.1070 137.647 4 80 16 273
1987320N03171 1987 96 WP MM NINA 1987-11-22 21:00:00 TS 11.0941 136.816 main 1179 1104 PPPP______P___ WP231987 11.1350 136.950 82 1 10.8422 136.613 5 67 970 9 80 80 9 200 200 11.0574 136.720 4 68 975 11.2948 136.942 T 75 962 11.1412 136.855 4 82 15 272
1987320N03171 1987 96 WP MM NINA 1987-11-23 00:00:00 TS 11.1200 136.060 70 970 tokyo main 1104 1029 OOOO______O___ jtwc_wp WP231987 11.2000 136.100 85 2 10.9000 135.900 5 70 970 9 80 80 9 200 200 0 11.1000 136.000 4 68 975 11.2000 136.200 T 80 960 11.2000 136.100 4 85 15 272
1987320N03171 1987 96 WP MM NINA 1987-11-23 03:00:00 TS 11.1491 135.335 main 1019 957 PPPP______P___ WP231987 11.3348 135.313 87 2 10.9423 135.227 5 72 967 9 80 80 9 200 200 11.0998 135.362 4 72 972 11.0275 135.420 T 80 960 11.3412 135.353 4 86 14 273
1987320N03171 1987 96 WP MM NINA 1987-11-23 06:00:00 TS 11.2014 134.669 75 965 tokyo main 957 896 OOOO______P___ jtwc_wp WP231987 11.5000 134.600 90 2 11.0000 134.600 5 75 965 9 80 80 9 200 200 0 11.1000 134.800 4 77 970 10.9000 134.700 T 80 960 11.5071 134.646 4 87 13 277
1987320N03171 1987 96 WP MM NINA 1987-11-23 09:00:00 TS 11.3063 134.063 main 896 836 PPPP______P___ WP231987 11.6648 133.955 90 2 11.0925 133.963 5 75 965 9 82 82 9 200 200 11.1423 134.293 4 77 970 10.9623 134.113 T 80 960 11.6695 133.991 4 88 11 281
1987320N03171 1987 96 WP MM NINA 1987-11-23 12:00:00 TS 11.4200 133.520 75 965 tokyo main 836 798 OOOO______O___ jtwc_wp WP231987 11.8000 133.400 90 2 11.2000 133.400 5 75 965 9 85 85 9 200 200 0 11.2000 133.800 4 77 970 11.1000 133.600 T 80 960 11.8000 133.400 4 90 10 281
1987320N03171 1987 96 WP MM NINA 1987-11-23 15:00:00 TS 11.4971 133.031 main 787 744 PPPP______P___ WP231987 11.8723 132.927 90 2 11.3147 132.985 5 75 965 9 82 82 9 200 200 11.2424 133.257 4 77 970 11.1999 133.092 T 80 960 11.8559 132.893 4 91 9 278
1987320N03171 1987 96 WP MM NINA 1987-11-23 18:00:00 TS 11.5558 132.569 75 965 tokyo main 745 690 OOOO______P___ jtwc_wp WP231987 11.9000 132.500 90 2 11.4000 132.600 5 75 965 9 80 80 9 200 200 0 11.3000 132.700 4 77 970 11.3000 132.600 T 80 960 11.8788 132.447 4 92 9 276
1987320N03171 1987 96 WP MM NINA 1987-11-23 21:00:00 TS 11.5944 132.088 main 690 636 PPPP______P___ WP231987 11.8999 132.057 92 2 11.4000 132.115 5 75 965 9 85 85 9 212 212 11.3849 132.142 4 77 967 11.3999 132.100 T 80 960 11.8873 132.027 4 93 10 275
1987320N03171 1987 96 WP MM NINA 1987-11-24 00:00:00 TS 11.6400 131.600 75 965 tokyo main 636 583 OOOO______O___ jtwc_wp WP231987 11.9000 131.600 95 2 11.4000 131.600 5 75 965 9 90 90 9 225 225 0 11.5000 131.600 4 77 965 11.5000 131.600 T 80 960 11.9000 131.600 4 95 10 277
1987320N03171 1987 96 WP MM NINA 1987-11-24 03:00:00 TS 11.7185 131.101 main 583 531 PPPP______P___ WP231987 11.9424 131.108 97 3 11.4775 131.093 5 75 962 9 90 90 9 225 225 11.6499 131.085 4 82 965 11.5924 131.100 T 80 960 11.9304 131.122 4 97 10 280
1987320N03171 1987 96 WP MM NINA 1987-11-24 06:00:00 TS 11.8139 130.606 75 960 tokyo main 531 490 OOOO______P___ jtwc_wp WP231987 12.0000 130.600 100 3 11.6000 130.600 5 75 960 9 90 90 9 225 225 0 11.8000 130.600 5 87 965 11.7000 130.600 T 80 960 11.9696 130.630 4 100 10 281
1987320N03171 1987 96 WP MM NINA 1987-11-24 09:00:00 TS 11.9072 130.126 main 479 439 PPPP______P___ WP231987 12.0424 130.107 102 3 11.7274 130.150 5 75 957 9 90 90 9 225 225 11.8999 130.150 5 87 962 11.8424 130.100 T 82 957 12.0241 130.122 4 102 10 282
1987320N03171 1987 96 WP MM NINA 1987-11-24 12:00:00 TS 12.0200 129.640 75 955 tokyo main 429 390 OOOO______O___ jtwc_wp WP231987 12.1000 129.600 105 3 11.9000 129.700 5 75 955 9 90 90 9 225 225 0 12.0000 129.700 5 87 960 12.0000 129.600 ST 85 955 12.1000 129.600 4 105 10 285
1987320N03171 1987 96 WP MM NINA 1987-11-24 15:00:00 TS 12.1683 129.142 main 383 337 PPPP______P___ WP231987 12.1849 129.057 110 3 12.1574 129.223 5 77 952 9 95 95 9 237 237 12.1423 129.230 5 87 960 12.1499 129.107 ST 87 952 12.2069 129.093 4 110 11 287
1987320N03171 1987 96 WP MM NINA 1987-11-24 18:00:00 TS 12.3268 128.613 80 950 tokyo main 337 283 OOOO______P___ jtwc_wp WP231987 12.3000 128.500 115 4 12.4000 128.700 5 80 950 9 100 100 9 250 250 0 12.3000 128.700 5 87 960 12.3000 128.600 ST 90 950 12.3340 128.567 4 115 11 286
1987320N03171 1987 96 WP MM NINA 1987-11-24 21:00:00 TS 12.4667 128.053 main 284 221 PPPP______P___ WP231987 12.4498 127.965 120 4 12.5149 128.130 5 85 945 9 112 112 9 250 250 12.4499 128.080 5 92 957 12.4498 128.080 ST 95 942 12.4692 128.008 4 120 12 283
1987320N03171 1987 96 WP MM NINA 1987-11-25 00:00:00 TS 12.6000 127.440 90 940 tokyo main 211 151 OOOO______O___ jtwc_wp WP231987 12.6000 127.400 125 4 12.6000 127.500 5 90 940 9 125 125 9 250 250 0 12.6000 127.400 5 97 955 12.6000 127.500 SuperT 100 935 12.6000 127.400 4 125 13 282
1987320N03171 1987 96 WP MM NINA 1987-11-25 03:00:00 TS 12.7334 126.787 main 151 101 PPPP______P___ WP231987 12.7073 126.787 130 4 12.7423 126.830 5 90 935 9 125 125 9 250 250 12.7572 126.730 5 97 950 12.7574 126.837 SuperT 110 925 12.7027 126.749 4 130 14 281
1987320N03171 1987 96 WP MM NINA 1987-11-25 06:00:00 TS 12.8598 126.069 90 930 tokyo main 101 55 OOOO______P___ jtwc_wp WP231987 12.8000 126.100 135 4 12.9000 126.100 5 90 930 9 125 125 9 250 250 0 12.9000 126.000 5 97 945 12.9000 126.100 SuperT 120 915 12.7992 126.047 4 135 15 279
1987320N03171 1987 96 WP MM NINA 1987-11-25 09:00:00 TS 12.9721 125.295 main 57 44 PPPP______P___ WP231987 12.8999 125.330 140 5 13.0572 125.330 5 90 930 9 125 125 9 250 250 13.0074 125.180 5 97 945 12.9997 125.337 SuperT 120 912 12.8961 125.296 4 140 16 278
1987320N03171 1987 96 WP MM NINA 1987-11-25 12:00:00 TS 13.0800 124.460 90 930 tokyo main 44 0 OOOO______O___ jtwc_wp WP231987 13.0000 124.500 145 5 13.2000 124.500 5 90 930 9 125 125 9 250 250 0 13.1000 124.300 5 97 945 13.1000 124.500 SuperT 120 910 13.0000 124.500 4 145 17 277
1987320N03171 1987 96 WP MM NINA 1987-11-25 15:00:00 TS 13.1885 123.587 main 0 0 PPPP______P___ WP231987 13.0922 123.665 137 5 13.3148 123.622 5 90 935 9 125 125 9 250 250 13.1920 123.430 5 97 947 13.2500 123.565 SuperT 107 925 13.0935 123.655 4 136 18 277
1987320N03171 1987 96 WP MM NINA 1987-11-25 18:00:00 TS 13.2995 122.674 90 940 tokyo main 0 0 OOOO______P___ jtwc_wp WP231987 13.2000 122.800 130 4 13.4000 122.700 5 90 940 9 125 125 9 250 250 0 13.3000 122.500 5 97 950 13.4000 122.600 ST 95 940 13.1976 122.771 4 127 18 277
1987320N03171 1987 96 WP MM NINA 1987-11-25 21:00:00 TS 13.3990 121.726 main 39 11 PPPP______P___ WP231987 13.3273 121.900 120 4 13.4124 121.742 5 90 942 9 125 125 9 300 250 13.4278 121.435 5 97 950 13.4998 121.677 ST 92 945 13.3278 121.877 4 118 18 278
1987320N03171 1987 96 WP MM NINA 1987-11-26 00:00:00 TS 13.5400 120.800 90 945 tokyo main 11 11 OOOO______O___ jtwc_wp WP231987 13.5000 121.000 110 3 13.5000 120.800 5 90 945 9 125 125 7 350 250 0 13.6000 120.400 5 97 950 13.6000 120.800 ST 90 950 13.5000 121.000 4 110 18 282
1987320N03171 1987 96 WP MM NINA 1987-11-26 03:00:00 TS 13.7633 119.951 main 55 55 PPPP______P___ WP231987 13.7273 120.127 102 3 13.8122 119.920 5 85 947 9 125 125 7 325 250 13.8343 119.570 5 92 950 13.7197 119.977 ST 90 950 13.7231 120.158 4 106 17 287
1987320N03171 1987 96 WP MM NINA 1987-11-26 06:00:00 TS 14.0378 119.148 80 950 tokyo main 140 133 OOOO______P___ jtwc_wp WP231987 14.0000 119.300 95 2 14.2000 119.100 5 80 950 9 125 125 7 300 250 0 14.1000 118.800 5 87 950 13.9000 119.200 ST 90 950 13.9892 119.340 4 102 17 290
1987320N03171 1987 96 WP MM NINA 1987-11-26 09:00:00 TS 14.3210 118.352 main 191 191 PPPP______P___ WP231987 14.2922 118.527 95 2 14.5072 118.320 5 80 952 9 112 112 7 275 250 14.3426 117.920 5 87 950 14.1772 118.443 ST 90 950 14.2857 118.552 4 98 16 291
1987320N03171 1987 96 WP MM NINA 1987-11-26 12:00:00 TS 14.6200 117.600 80 955 tokyo main 262 262 OOOO______O___ jtwc_wp WP231987 14.6000 117.800 95 2 14.8000 117.600 5 80 955 9 100 100 9 250 250 0 14.6000 117.100 5 87 950 14.5000 117.700 ST 90 950 14.6000 117.800 4 95 15 293
1987320N03171 1987 96 WP MM NINA 1987-11-26 15:00:00 TS 14.9133 116.893 main 324 324 PPPP______P___ WP231987 14.8923 117.085 97 3 15.1072 116.927 5 77 955 9 100 100 9 250 250 14.8846 116.447 5 87 950 14.7848 116.942 ST 90 950 14.8977 117.064 4 96 15 295
1987320N03171 1987 96 WP MM NINA 1987-11-26 18:00:00 TS 15.2223 116.233 75 955 tokyo main 385 382 OOOO______P___ jtwc_wp WP231987 15.2000 116.400 100 3 15.4000 116.300 5 75 955 9 100 100 9 250 250 0 15.2000 115.900 5 87 950 15.1000 116.200 ST 90 950 15.2117 116.367 4 97 14 297
1987320N03171 1987 96 WP MM NINA 1987-11-26 21:00:00 TS 15.5513 115.602 main 441 441 PPPP______P___ WP231987 15.5347 115.742 100 3 15.6498 115.692 5 75 957 9 100 100 9 250 250 15.5347 115.400 5 87 950 15.4925 115.463 ST 90 950 15.5448 115.711 4 98 14 300
1987320N03171 1987 96 WP MM NINA 1987-11-27 00:00:00 TS 15.9000 115.000 75 960 tokyo main 502 502 OOOO______O___ jtwc_wp WP231987 15.9000 115.100 100 3 15.9000 115.100 5 75 960 9 100 100 9 250 250 0 15.9000 114.900 5 87 950 15.9000 114.800 ST 90 950 15.9000 115.100 4 100 14 301
1987320N03171 1987 96 WP MM NINA 1987-11-27 03:00:00 TS 16.2506 114.372 main 499 427 PPPP______P___ WP231987 16.2926 114.413 97 3 16.1626 114.470 5 75 960 9 95 95 9 237 237 16.2853 114.270 5 87 950 16.2422 114.255 ST 90 950 16.2703 114.455 4 98 14 303
1987320N03171 1987 96 WP MM NINA 1987-11-27 06:00:00 TS 16.6325 113.813 75 960 tokyo main 427 367 OOOO______P___ jtwc_wp WP231987 16.7000 113.800 95 2 16.5000 113.900 5 75 960 9 90 90 9 225 225 0 16.7000 113.700 5 87 950 16.6000 113.800 ST 90 950 16.6627 113.864 4 97 13 310
1987320N03171 1987 96 WP MM NINA 1987-11-27 09:00:00 TS 17.0596 113.359 main 360 310 PPPP______P___ WP231987 17.0773 113.325 95 2 16.9699 113.433 5 72 962 9 82 82 9 212 212 17.1498 113.325 5 82 955 17.0275 113.348 ST 90 950 17.0736 113.365 4 96 12 320
1987320N03171 1987 96 WP MM NINA 1987-11-27 12:00:00 TS 17.5200 113.040 70 965 tokyo main 301 257 OOOO______O___ jtwc_wp WP231987 17.5000 113.000 95 2 17.5000 113.100 5 70 965 9 75 75 9 200 200 0 17.6000 113.100 4 77 960 17.5000 113.000 ST 90 950 17.5000 113.000 4 95 11 332
1987320N03171 1987 96 WP MM NINA 1987-11-27 15:00:00 TS 18.0108 112.832 main 257 225 PPPP______P___ WP231987 18.0574 112.782 95 2 18.0149 112.875 5 70 965 9 75 75 9 200 200 17.9999 112.955 4 77 960 18.0149 112.790 ST 92 947 17.9670 112.756 4 95 10 344
1987320N03171 1987 96 WP MM NINA 1987-11-27 18:00:00 TS 18.4887 112.750 70 965 tokyo main 225 194 OOOO______P___ jtwc_wp WP231987 18.6000 112.700 95 2 18.5000 112.800 5 70 965 9 75 75 9 200 200 0 18.4000 112.900 4 77 960 18.5000 112.700 ST 95 945 18.4436 112.652 4 95 9 355
1987320N03171 1987 96 WP MM NINA 1987-11-27 21:00:00 TS 18.9092 112.747 main 194 191 PPPP______P___ WP231987 18.9950 112.705 95 2 18.9225 112.855 5 67 962 9 67 67 9 187 187 18.8575 112.855 4 77 960 18.8724 112.648 ST 95 945 18.8985 112.672 4 95 8 6
1987320N03171 1987 96 WP MM NINA 1987-11-28 00:00:00 TS 19.2800 112.840 65 960 tokyo main 191 191 OOOO______O___ jtwc_wp WP231987 19.3000 112.800 95 2 19.3000 113.000 5 65 960 9 60 60 9 175 175 0 19.3000 112.900 4 77 960 19.2000 112.700 ST 95 945 19.3000 112.800 4 95 8 16
1987320N03171 1987 96 WP MM NINA 1987-11-28 03:00:00 TS 19.6493 112.968 main 209 209 PPPP______P___ WP231987 19.5648 112.890 97 3 19.6949 113.113 5 65 962 9 60 60 9 175 175 19.7098 113.025 4 72 962 19.5798 112.825 ST 90 950 19.6970 112.990 4 91 8 28
1987320N03171 1987 96 WP MM NINA 1987-11-28 06:00:00 TS 19.9450 113.215 65 965 tokyo main 221 205 OOOO______P___ jtwc_wp WP231987 19.8000 113.100 100 3 20.0000 113.300 5 65 965 9 60 60 9 175 175 0 20.0000 113.300 4 68 965 19.9000 113.100 ST 85 955 20.0252 113.277 4 87 8 50
1987320N03171 1987 96 WP MM NINA 1987-11-28 09:00:00 TS 20.1477 113.611 main 210 200 PPPP______P___ WP231987 20.1101 113.497 90 2 20.1751 113.620 5 62 967 9 55 55 9 162 162 20.1176 113.748 4 63 967 20.0952 113.562 ST 67 965 20.2407 113.627 4 83 9 71
1987320N03171 1987 96 WP MM NINA 1987-11-28 12:00:00 TS 20.2211 114.079 60 970 tokyo main 221 221 OOOO______O___ jtwc_wp WP231987 20.3000 114.000 80 1 20.2000 114.000 4 60 970 9 50 50 9 150 150 0 20.1000 114.300 3 58 970 20.2000 114.100 STS 50 975 20.3000 114.000 4 80 9 89
1987320N03171 1987 96 WP MM NINA 1987-11-28 15:00:00 TS 20.1613 114.541 main 235 235 PPPP______P___ WP231987 20.2552 114.538 70 1 20.1175 114.358 4 55 975 9 40 40 9 150 150 20.0525 114.857 3 53 977 20.2600 114.575 STS 45 982 20.1708 114.394 4 72 9 108
1987320N03171 1987 96 WP MM NINA 1987-11-28 18:00:00 TS 19.9443 114.975 50 980 tokyo main 278 278 OOOO______P___ jtwc_wp WP231987 20.0000 115.000 60 0 19.9000 114.700 4 50 980 9 30 30 9 150 150 0 19.9000 115.400 3 48 985 20.3000 115.000 TS 40 990 19.8882 114.793 4 65 9 129
1987320N03171 1987 96 WP MM NINA 1987-11-28 21:00:00 TS 19.5770 115.314 main 319 319 PPP_______P___ WP231987 19.5948 115.275 55 0 19.6174 115.015 4 45 985 9 9 225 125 19.5844 115.820 3 38 992 TS 19.5114 115.144 4 57 10 145
1987320N03171 1987 96 WP MM NINA 1987-11-29 00:00:00 TS 19.1667 115.553 40 990 tokyo main 372 372 OOO_______O___ jtwc_wp WP231987 19.1000 115.400 50 0 19.2000 115.300 3 40 990 0 1 300 100 0 19.3000 116.300 2 29 1000 19.1000 115.400 2 50 9 156
1987320N03171 1987 96 WP MM NINA 1987-11-29 03:00:00 TS 18.7371 115.718 main 428 428 PPP_______P___ WP231987 18.6275 115.430 45 0 18.6150 115.588 3 40 993 0 1 275 100 19.2311 116.984 2 29 1002 18.7218 115.504 2 45 9 169
1987320N03171 1987 96 WP MM NINA 1987-11-29 06:00:00 TS 18.2622 115.742 40 996 tokyo main 470 470 OOO_______P___ jtwc_wp WP231987 18.2000 115.400 40 0 18.0000 115.800 3 40 996 0 8 250 100 0 19.3000 117.800 2 29 1004 18.3271 115.511 2 40 10 188
1987320N03171 1987 96 WP MM NINA 1987-11-29 09:00:00 TS 17.7779 115.586 main 477 466 PP________P___ WP231987 17.8700 115.400 35 0 17.5200 115.895 3 40 998 0 8 200 100 2 17.9439 115.463 2 35 9 191
1987320N03171 1987 96 WP MM NINA 1987-11-29 12:00:00 TS 17.4333 115.567 40 1000 tokyo main 463 454 OO________O___ jtwc_wp WP231987 17.6000 115.400 30 -1 17.1000 115.900 3 40 1000 0 8 150 100 0 17.6000 115.400 1 30 7 182
1987320N03171 1987 96 WP MM NINA 1987-11-29 15:00:00 TS 17.1187 115.558 main 454 454 PP________P___ WP231987 17.3350 115.408 27 -1 16.6925 115.880 3 1002 0 8 17.3286 115.387 1 27 6 188
1987320N03171 1987 96 WP MM NINA 1987-11-29 18:00:00 TS 16.8814 115.497 1004 tokyo main 459 457 OO________P___ jtwc_wp WP231987 17.1000 115.400 25 -1 16.3000 115.800 2 1004 0 0 0 17.0989 115.367 1 25 4 198
1987320N03171 1987 96 WP MM NINA 1987-11-29 21:00:00 TS 16.6954 115.411 main 465 463 PP________P___ WP231987 16.8925 115.357 22 -1 15.9025 115.665 2 1006 0 0 16.8948 115.338 1 22 4 205
1987320N03171 1987 96 WP MM NINA 1987-11-30 00:00:00 TS 16.5286 115.329 1008 tokyo main 473 473 OO________O___ jtwc_wp WP231987 16.7000 115.300 20 -1 15.5000 115.500 2 1008 0 0 0 16.7000 115.300 1 20 2 219
1987320N03171 1987 96 WP MM NINA 1987-11-30 03:00:00 NR 16.5021 115.250 main 473 473 P_________P___ WP231987 16.5025 115.247 20 -1 2 0 0 16.5017 115.253 1 20 3 208
1987320N03171 1987 96 WP MM NINA 1987-11-30 06:00:00 NR 16.3000 115.200 main 481 O_________O___ jtwc_wp WP231987 16.3000 115.200 20 -1 16.3000 115.200 1 20 4 191

Digital Typhoon Data and Search

About IBTrACS Database

This database is a web-friendly format of International Best Track Archive for Climate Stewardship (IBTrACS), a global best track data archive curated by NOAA dating back to 1842.

Updated: 2021-12-06